sensor_id;sensor_type;location;lat;lon;timestamp;temperature;humidity
75786;DHT22;64402;44.708;37.644;2023-12-20T00:00:09;10.65;89.24
75786;DHT22;64402;44.708;37.644;2023-12-20T00:02:35;10.29;96.71
75786;DHT22;64402;44.708;37.644;2023-12-20T00:05:02;10.12;97.73
75786;DHT22;64402;44.708;37.644;2023-12-20T00:07:28;9.99;97.78
75786;DHT22;64402;44.708;37.644;2023-12-20T00:09:54;9.94;97.87
75786;DHT22;64402;44.708;37.644;2023-12-20T00:12:20;9.89;98.19
75786;DHT22;64402;44.708;37.644;2023-12-20T00:14:46;9.89;98.30
75786;DHT22;64402;44.708;37.644;2023-12-20T00:17:12;9.83;98.40
75786;DHT22;64402;44.708;37.644;2023-12-20T00:19:39;9.79;98.31
75786;DHT22;64402;44.708;37.644;2023-12-20T00:22:05;9.74;98.04
75786;DHT22;64402;44.708;37.644;2023-12-20T00:24:31;9.71;98.26
75786;DHT22;64402;44.708;37.644;2023-12-20T00:26:57;9.61;97.70
75786;DHT22;64402;44.708;37.644;2023-12-20T00:29:23;9.56;97.00
75786;DHT22;64402;44.708;37.644;2023-12-20T00:31:49;9.52;97.45
75786;DHT22;64402;44.708;37.644;2023-12-20T00:34:15;9.55;98.09
75786;DHT22;64402;44.708;37.644;2023-12-20T00:36:42;9.61;98.31
75786;DHT22;64402;44.708;37.644;2023-12-20T00:39:08;9.64;98.42
75786;DHT22;64402;44.708;37.644;2023-12-20T00:41:34;9.68;98.29
75786;DHT22;64402;44.708;37.644;2023-12-20T00:44:00;9.71;98.06
75786;DHT22;64402;44.708;37.644;2023-12-20T00:46:26;9.78;98.10
75786;DHT22;64402;44.708;37.644;2023-12-20T00:48:52;9.78;97.89
75786;DHT22;64402;44.708;37.644;2023-12-20T00:51:18;9.79;97.06
75786;DHT22;64402;44.708;37.644;2023-12-20T00:53:44;9.75;95.79
75786;DHT22;64402;44.708;37.644;2023-12-20T00:56:11;9.66;96.49
75786;DHT22;64402;44.708;37.644;2023-12-20T00:58:38;9.63;96.96
75786;DHT22;64402;44.708;37.644;2023-12-20T01:01:04;9.62;97.60
75786;DHT22;64402;44.708;37.644;2023-12-20T01:03:30;9.62;97.63
75786;DHT22;64402;44.708;37.644;2023-12-20T01:05:56;9.62;97.55
75786;DHT22;64402;44.708;37.644;2023-12-20T01:08:22;9.64;97.37
75786;DHT22;64402;44.708;37.644;2023-12-20T01:10:49;9.66;97.37
75786;DHT22;64402;44.708;37.644;2023-12-20T01:13:15;9.66;97.45
75786;DHT22;64402;44.708;37.644;2023-12-20T01:15:41;9.70;97.04
75786;DHT22;64402;44.708;37.644;2023-12-20T01:18:07;9.74;97.10
75786;DHT22;64402;44.708;37.644;2023-12-20T01:20:33;9.76;97.08
75786;DHT22;64402;44.708;37.644;2023-12-20T01:22:59;9.81;96.04
75786;DHT22;64402;44.708;37.644;2023-12-20T01:25:25;9.81;95.25
75786;DHT22;64402;44.708;37.644;2023-12-20T01:27:52;9.82;94.94
75786;DHT22;64402;44.708;37.644;2023-12-20T01:30:18;9.86;94.62
75786;DHT22;64402;44.708;37.644;2023-12-20T01:32:44;9.86;94.04
75786;DHT22;64402;44.708;37.644;2023-12-20T01:35:11;9.82;93.75
75786;DHT22;64402;44.708;37.644;2023-12-20T01:37:38;9.79;94.84
75786;DHT22;64402;44.708;37.644;2023-12-20T01:40:05;9.81;94.70
75786;DHT22;64402;44.708;37.644;2023-12-20T01:42:31;9.88;94.19
75786;DHT22;64402;44.708;37.644;2023-12-20T01:44:57;9.92;93.98
75786;DHT22;64402;44.708;37.644;2023-12-20T01:47:23;9.97;93.44
75786;DHT22;64402;44.708;37.644;2023-12-20T01:49:50;10.04;92.16
75786;DHT22;64402;44.708;37.644;2023-12-20T01:52:16;10.11;91.33
75786;DHT22;64402;44.708;37.644;2023-12-20T01:54:43;10.15;91.47
75786;DHT22;64402;44.708;37.644;2023-12-20T01:57:10;10.20;91.19
75786;DHT22;64402;44.708;37.644;2023-12-20T01:59:37;10.25;91.39
75786;DHT22;64402;44.708;37.644;2023-12-20T02:02:05;10.31;92.01
75786;DHT22;64402;44.708;37.644;2023-12-20T02:04:32;10.37;92.19
75786;DHT22;64402;44.708;37.644;2023-12-20T02:06:59;10.40;91.98
75786;DHT22;64402;44.708;37.644;2023-12-20T02:09:26;10.44;91.61
75786;DHT22;64402;44.708;37.644;2023-12-20T02:11:54;10.49;91.62
75786;DHT22;64402;44.708;37.644;2023-12-20T02:14:20;10.52;91.04
75786;DHT22;64402;44.708;37.644;2023-12-20T02:16:46;10.55;91.35
75786;DHT22;64402;44.708;37.644;2023-12-20T02:19:17;10.51;92.08
75786;DHT22;64402;44.708;37.644;2023-12-20T02:21:45;10.48;92.02
75786;DHT22;64402;44.708;37.644;2023-12-20T02:24:11;10.46;90.66
75786;DHT22;64402;44.708;37.644;2023-12-20T02:26:37;10.44;91.44
75786;DHT22;64402;44.708;37.644;2023-12-20T02:29:04;10.45;90.93
75786;DHT22;64402;44.708;37.644;2023-12-20T02:31:30;10.48;89.48
75786;DHT22;64402;44.708;37.644;2023-12-20T02:33:56;10.49;88.66
75786;DHT22;64402;44.708;37.644;2023-12-20T02:36:22;10.53;88.45
75786;DHT22;64402;44.708;37.644;2023-12-20T02:38:48;10.56;88.96
75786;DHT22;64402;44.708;37.644;2023-12-20T02:41:16;10.57;88.99
75786;DHT22;64402;44.708;37.644;2023-12-20T02:43:43;10.62;88.73
75786;DHT22;64402;44.708;37.644;2023-12-20T02:46:10;10.63;88.86
75786;DHT22;64402;44.708;37.644;2023-12-20T02:48:36;10.67;88.80
75786;DHT22;64402;44.708;37.644;2023-12-20T02:51:02;10.68;88.77
75786;DHT22;64402;44.708;37.644;2023-12-20T02:53:28;10.70;88.29
75786;DHT22;64402;44.708;37.644;2023-12-20T02:55:54;10.71;88.72
75786;DHT22;64402;44.708;37.644;2023-12-20T02:58:20;10.71;88.04
75786;DHT22;64402;44.708;37.644;2023-12-20T03:00:46;10.72;87.76
75786;DHT22;64402;44.708;37.644;2023-12-20T03:03:13;10.73;87.68
75786;DHT22;64402;44.708;37.644;2023-12-20T03:05:39;10.77;87.49
75786;DHT22;64402;44.708;37.644;2023-12-20T03:08:05;10.79;86.67
75786;DHT22;64402;44.708;37.644;2023-12-20T03:10:31;10.82;86.34
75786;DHT22;64402;44.708;37.644;2023-12-20T03:12:57;10.81;86.37
75786;DHT22;64402;44.708;37.644;2023-12-20T03:15:24;10.82;86.03
75786;DHT22;64402;44.708;37.644;2023-12-20T03:17:50;10.81;85.88
75786;DHT22;64402;44.708;37.644;2023-12-20T03:20:16;10.82;85.85
75786;DHT22;64402;44.708;37.644;2023-12-20T03:22:42;10.83;85.29
75786;DHT22;64402;44.708;37.644;2023-12-20T03:25:08;10.83;85.73
75786;DHT22;64402;44.708;37.644;2023-12-20T03:27:37;10.84;84.75
75786;DHT22;64402;44.708;37.644;2023-12-20T03:30:06;10.85;85.13
75786;DHT22;64402;44.708;37.644;2023-12-20T03:32:32;10.87;85.19
75786;DHT22;64402;44.708;37.644;2023-12-20T03:34:58;10.87;84.91
75786;DHT22;64402;44.708;37.644;2023-12-20T03:37:24;10.88;85.20
75786;DHT22;64402;44.708;37.644;2023-12-20T03:39:50;10.89;85.06
75786;DHT22;64402;44.708;37.644;2023-12-20T03:42:17;10.88;85.37
75786;DHT22;64402;44.708;37.644;2023-12-20T03:44:43;10.87;85.14
75786;DHT22;64402;44.708;37.644;2023-12-20T03:47:09;10.88;85.21
75786;DHT22;64402;44.708;37.644;2023-12-20T03:49:35;10.87;86.39
75786;DHT22;64402;44.708;37.644;2023-12-20T03:52:03;10.87;86.19
75786;DHT22;64402;44.708;37.644;2023-12-20T03:54:29;10.88;85.17
75786;DHT22;64402;44.708;37.644;2023-12-20T03:56:55;10.88;85.23
75786;DHT22;64402;44.708;37.644;2023-12-20T03:59:22;10.87;85.55
75786;DHT22;64402;44.708;37.644;2023-12-20T04:01:48;10.87;85.31
75786;DHT22;64402;44.708;37.644;2023-12-20T04:04:14;10.88;85.42
75786;DHT22;64402;44.708;37.644;2023-12-20T04:06:40;10.88;85.55
75786;DHT22;64402;44.708;37.644;2023-12-20T04:09:07;10.89;85.74
75786;DHT22;64402;44.708;37.644;2023-12-20T04:11:36;10.88;85.49
75786;DHT22;64402;44.708;37.644;2023-12-20T04:14:02;10.89;85.48
75786;DHT22;64402;44.708;37.644;2023-12-20T04:16:30;10.89;85.12
75786;DHT22;64402;44.708;37.644;2023-12-20T04:18:57;10.89;84.35
75786;DHT22;64402;44.708;37.644;2023-12-20T04:21:23;10.87;84.61
75786;DHT22;64402;44.708;37.644;2023-12-20T04:23:49;10.85;84.76
75786;DHT22;64402;44.708;37.644;2023-12-20T04:26:15;10.81;85.43
75786;DHT22;64402;44.708;37.644;2023-12-20T04:28:41;10.79;85.55
75786;DHT22;64402;44.708;37.644;2023-12-20T04:31:08;10.77;85.19
75786;DHT22;64402;44.708;37.644;2023-12-20T04:33:34;10.74;84.92
75786;DHT22;64402;44.708;37.644;2023-12-20T04:36:00;10.74;84.71
75786;DHT22;64402;44.708;37.644;2023-12-20T04:38:27;10.75;84.18
75786;DHT22;64402;44.708;37.644;2023-12-20T04:40:53;10.75;83.07
75786;DHT22;64402;44.708;37.644;2023-12-20T04:43:19;10.75;83.68
75786;DHT22;64402;44.708;37.644;2023-12-20T04:45:45;10.73;84.11
75786;DHT22;64402;44.708;37.644;2023-12-20T04:48:12;10.72;84.59
75786;DHT22;64402;44.708;37.644;2023-12-20T04:50:38;10.69;84.29
75786;DHT22;64402;44.708;37.644;2023-12-20T04:53:04;10.66;84.77
75786;DHT22;64402;44.708;37.644;2023-12-20T04:55:30;10.65;84.48
75786;DHT22;64402;44.708;37.644;2023-12-20T04:57:56;10.63;84.47
75786;DHT22;64402;44.708;37.644;2023-12-20T05:00:23;10.62;84.46
75786;DHT22;64402;44.708;37.644;2023-12-20T05:02:49;10.59;84.57
75786;DHT22;64402;44.708;37.644;2023-12-20T05:05:15;10.57;85.06
75786;DHT22;64402;44.708;37.644;2023-12-20T05:07:44;10.57;85.11
75786;DHT22;64402;44.708;37.644;2023-12-20T05:10:10;10.55;85.16
75786;DHT22;64402;44.708;37.644;2023-12-20T05:12:36;10.54;85.51
75786;DHT22;64402;44.708;37.644;2023-12-20T05:15:03;10.56;85.17
75786;DHT22;64402;44.708;37.644;2023-12-20T05:17:29;10.56;84.33
75786;DHT22;64402;44.708;37.644;2023-12-20T05:19:55;10.54;84.26
75786;DHT22;64402;44.708;37.644;2023-12-20T05:22:21;10.56;84.93
75786;DHT22;64402;44.708;37.644;2023-12-20T05:24:47;10.57;85.78
75786;DHT22;64402;44.708;37.644;2023-12-20T05:27:13;10.55;84.49
75786;DHT22;64402;44.708;37.644;2023-12-20T05:29:40;10.59;84.26
75786;DHT22;64402;44.708;37.644;2023-12-20T05:32:06;10.60;84.07
75786;DHT22;64402;44.708;37.644;2023-12-20T05:34:32;10.63;83.84
75786;DHT22;64402;44.708;37.644;2023-12-20T05:36:58;10.63;84.43
75786;DHT22;64402;44.708;37.644;2023-12-20T05:39:25;10.64;84.54
75786;DHT22;64402;44.708;37.644;2023-12-20T05:41:51;10.71;84.68
75786;DHT22;64402;44.708;37.644;2023-12-20T05:44:18;10.74;84.17
75786;DHT22;64402;44.708;37.644;2023-12-20T05:46:44;10.79;83.89
75786;DHT22;64402;44.708;37.644;2023-12-20T05:49:11;10.82;83.20
75786;DHT22;64402;44.708;37.644;2023-12-20T05:51:37;10.85;82.50
75786;DHT22;64402;44.708;37.644;2023-12-20T05:54:03;10.90;82.79
75786;DHT22;64402;44.708;37.644;2023-12-20T05:56:30;10.93;81.55
75786;DHT22;64402;44.708;37.644;2023-12-20T05:58:56;10.92;81.37
75786;DHT22;64402;44.708;37.644;2023-12-20T06:01:22;10.96;81.77
75786;DHT22;64402;44.708;37.644;2023-12-20T06:03:48;10.99;82.37
75786;DHT22;64402;44.708;37.644;2023-12-20T06:06:15;11.04;82.10
75786;DHT22;64402;44.708;37.644;2023-12-20T06:08:41;11.05;80.78
75786;DHT22;64402;44.708;37.644;2023-12-20T06:11:09;11.05;79.53
75786;DHT22;64402;44.708;37.644;2023-12-20T06:13:35;11.03;78.14
75786;DHT22;64402;44.708;37.644;2023-12-20T06:16:01;11.09;78.76
75786;DHT22;64402;44.708;37.644;2023-12-20T06:18:27;11.18;79.28
75786;DHT22;64402;44.708;37.644;2023-12-20T06:20:54;11.19;79.72
75786;DHT22;64402;44.708;37.644;2023-12-20T06:23:20;11.23;79.22
75786;DHT22;64402;44.708;37.644;2023-12-20T06:25:47;11.28;77.95
75786;DHT22;64402;44.708;37.644;2023-12-20T06:28:13;11.25;77.85
75786;DHT22;64402;44.708;37.644;2023-12-20T06:30:40;11.27;78.11
75786;DHT22;64402;44.708;37.644;2023-12-20T06:33:07;11.28;78.61
75786;DHT22;64402;44.708;37.644;2023-12-20T06:35:33;11.25;78.73
75786;DHT22;64402;44.708;37.644;2023-12-20T06:37:59;11.30;78.20
75786;DHT22;64402;44.708;37.644;2023-12-20T06:40:27;11.29;78.17
75786;DHT22;64402;44.708;37.644;2023-12-20T06:42:53;11.70;76.55
75786;DHT22;64402;44.708;37.644;2023-12-20T06:45:20;12.05;75.75
75786;DHT22;64402;44.708;37.644;2023-12-20T06:47:46;12.20;74.56
75786;DHT22;64402;44.708;37.644;2023-12-20T06:50:12;12.04;76.37
75786;DHT22;64402;44.708;37.644;2023-12-20T06:52:38;12.00;76.51
75786;DHT22;64402;44.708;37.644;2023-12-20T06:55:05;11.88;77.15
75786;DHT22;64402;44.708;37.644;2023-12-20T06:57:31;11.87;77.69
75786;DHT22;64402;44.708;37.644;2023-12-20T06:59:57;11.87;77.34
75786;DHT22;64402;44.708;37.644;2023-12-20T07:02:23;11.83;77.93
75786;DHT22;64402;44.708;37.644;2023-12-20T07:04:50;11.76;77.02
75786;DHT22;64402;44.708;37.644;2023-12-20T07:07:16;11.71;77.31
75786;DHT22;64402;44.708;37.644;2023-12-20T07:09:42;11.67;77.66
75786;DHT22;64402;44.708;37.644;2023-12-20T07:12:09;11.61;78.14
75786;DHT22;64402;44.708;37.644;2023-12-20T07:14:35;11.63;77.97
75786;DHT22;64402;44.708;37.644;2023-12-20T07:17:01;11.70;77.52
75786;DHT22;64402;44.708;37.644;2023-12-20T07:19:27;11.67;77.89
75786;DHT22;64402;44.708;37.644;2023-12-20T07:21:54;11.67;78.64
75786;DHT22;64402;44.708;37.644;2023-12-20T07:24:20;11.71;78.91
75786;DHT22;64402;44.708;37.644;2023-12-20T07:26:47;11.79;78.70
75786;DHT22;64402;44.708;37.644;2023-12-20T07:29:13;11.78;77.58
75786;DHT22;64402;44.708;37.644;2023-12-20T07:31:39;11.77;77.65
75786;DHT22;64402;44.708;37.644;2023-12-20T07:34:05;11.74;77.31
75786;DHT22;64402;44.708;37.644;2023-12-20T07:36:31;11.74;78.24
75786;DHT22;64402;44.708;37.644;2023-12-20T07:38:58;11.88;77.30
75786;DHT22;64402;44.708;37.644;2023-12-20T07:41:24;12.18;75.80
75786;DHT22;64402;44.708;37.644;2023-12-20T07:43:50;12.52;74.47
75786;DHT22;64402;44.708;37.644;2023-12-20T07:46:16;12.31;75.13
75786;DHT22;64402;44.708;37.644;2023-12-20T07:48:43;12.30;74.92
75786;DHT22;64402;44.708;37.644;2023-12-20T07:51:10;12.15;75.71
75786;DHT22;64402;44.708;37.644;2023-12-20T07:53:36;12.05;76.03
75786;DHT22;64402;44.708;37.644;2023-12-20T07:56:16;12.53;74.52
75786;DHT22;64402;44.708;37.644;2023-12-20T07:58:43;12.41;75.79
75786;DHT22;64402;44.708;37.644;2023-12-20T08:01:11;12.30;76.12
75786;DHT22;64402;44.708;37.644;2023-12-20T08:03:38;13.11;73.09
75786;DHT22;64402;44.708;37.644;2023-12-20T08:06:04;13.46;72.16
75786;DHT22;64402;44.708;37.644;2023-12-20T08:08:31;12.94;72.96
75786;DHT22;64402;44.708;37.644;2023-12-20T08:10:57;12.84;73.67
75786;DHT22;64402;44.708;37.644;2023-12-20T08:13:26;12.72;74.32
75786;DHT22;64402;44.708;37.644;2023-12-20T08:15:53;12.55;75.02
75786;DHT22;64402;44.708;37.644;2023-12-20T08:18:19;12.49;74.83
75786;DHT22;64402;44.708;37.644;2023-12-20T08:20:45;12.50;74.60
75786;DHT22;64402;44.708;37.644;2023-12-20T08:23:13;12.44;74.93
75786;DHT22;64402;44.708;37.644;2023-12-20T08:25:39;12.53;74.91
75786;DHT22;64402;44.708;37.644;2023-12-20T08:28:06;14.48;68.91
75786;DHT22;64402;44.708;37.644;2023-12-20T08:30:32;16.75;61.07
75786;DHT22;64402;44.708;37.644;2023-12-20T08:33:01;16.11;62.39
75786;DHT22;64402;44.708;37.644;2023-12-20T08:35:28;15.11;65.25
75786;DHT22;64402;44.708;37.644;2023-12-20T08:37:54;14.19;68.45
75786;DHT22;64402;44.708;37.644;2023-12-20T08:40:21;14.17;69.16
75786;DHT22;64402;44.708;37.644;2023-12-20T08:42:49;14.44;68.30
75786;DHT22;64402;44.708;37.644;2023-12-20T08:45:15;14.92;67.04
75786;DHT22;64402;44.708;37.644;2023-12-20T08:47:42;14.68;67.76
75786;DHT22;64402;44.708;37.644;2023-12-20T08:50:10;13.95;69.27
75786;DHT22;64402;44.708;37.644;2023-12-20T08:52:36;13.85;69.42
75786;DHT22;64402;44.708;37.644;2023-12-20T08:55:03;13.69;70.18
75786;DHT22;64402;44.708;37.644;2023-12-20T08:57:29;14.71;67.39
75786;DHT22;64402;44.708;37.644;2023-12-20T08:59:57;14.23;68.18
75786;DHT22;64402;44.708;37.644;2023-12-20T09:02:24;13.88;69.89
75786;DHT22;64402;44.708;37.644;2023-12-20T09:04:50;15.15;66.66
75786;DHT22;64402;44.708;37.644;2023-12-20T09:07:26;17.50;57.22
75786;DHT22;64402;44.708;37.644;2023-12-20T09:09:53;16.05;61.30
75786;DHT22;64402;44.708;37.644;2023-12-20T09:12:22;14.78;65.21
75786;DHT22;64402;44.708;37.644;2023-12-20T09:14:50;14.41;67.64
75786;DHT22;64402;44.708;37.644;2023-12-20T09:17:17;15.41;66.19
75786;DHT22;64402;44.708;37.644;2023-12-20T09:19:44;15.11;64.92
75786;DHT22;64402;44.708;37.644;2023-12-20T09:22:10;17.89;57.11
75786;DHT22;64402;44.708;37.644;2023-12-20T09:24:37;16.80;59.03
75786;DHT22;64402;44.708;37.644;2023-12-20T09:27:05;16.33;60.77
75786;DHT22;64402;44.708;37.644;2023-12-20T09:29:31;16.63;60.16
75786;DHT22;64402;44.708;37.644;2023-12-20T09:31:58;16.21;61.34
75786;DHT22;64402;44.708;37.644;2023-12-20T09:34:24;15.07;64.76
75786;DHT22;64402;44.708;37.644;2023-12-20T09:36:52;14.51;66.14
75786;DHT22;64402;44.708;37.644;2023-12-20T09:39:19;14.44;67.74
75786;DHT22;64402;44.708;37.644;2023-12-20T09:42:10;14.18;67.76
75786;DHT22;64402;44.708;37.644;2023-12-20T09:44:37;14.09;68.60
75786;DHT22;64402;44.708;37.644;2023-12-20T09:47:07;14.14;68.43
75786;DHT22;64402;44.708;37.644;2023-12-20T09:49:34;14.01;68.84
75786;DHT22;64402;44.708;37.644;2023-12-20T09:52:01;13.94;69.75
75786;DHT22;64402;44.708;37.644;2023-12-20T09:54:28;16.08;61.44
75786;DHT22;64402;44.708;37.644;2023-12-20T09:56:56;16.24;60.23
75786;DHT22;64402;44.708;37.644;2023-12-20T09:59:22;15.15;64.13
75786;DHT22;64402;44.708;37.644;2023-12-20T10:01:49;14.78;65.27
75786;DHT22;64402;44.708;37.644;2023-12-20T10:04:16;14.36;66.63
75786;DHT22;64402;44.708;37.644;2023-12-20T10:06:43;13.96;68.57
75786;DHT22;64402;44.708;37.644;2023-12-20T10:09:10;13.76;70.19
75786;DHT22;64402;44.708;37.644;2023-12-20T10:11:37;13.68;69.94
75786;DHT22;64402;44.708;37.644;2023-12-20T10:14:04;13.56;70.13
75786;DHT22;64402;44.708;37.644;2023-12-20T10:16:31;13.84;68.87
75786;DHT22;64402;44.708;37.644;2023-12-20T10:18:58;13.85;69.52
75786;DHT22;64402;44.708;37.644;2023-12-20T10:21:25;13.85;69.71
75786;DHT22;64402;44.708;37.644;2023-12-20T10:23:55;13.97;68.93
75786;DHT22;64402;44.708;37.644;2023-12-20T10:26:22;13.89;69.40
75786;DHT22;64402;44.708;37.644;2023-12-20T10:28:56;13.61;69.74
75786;DHT22;64402;44.708;37.644;2023-12-20T10:31:29;13.58;70.11
75786;DHT22;64402;44.708;37.644;2023-12-20T10:33:57;13.54;70.84
75786;DHT22;64402;44.708;37.644;2023-12-20T10:36:30;13.45;71.16
75786;DHT22;64402;44.708;37.644;2023-12-20T10:38:57;13.39;70.89
75786;DHT22;64402;44.708;37.644;2023-12-20T10:41:31;13.36;71.05
75786;DHT22;64402;44.708;37.644;2023-12-20T10:44:04;13.22;70.67
75786;DHT22;64402;44.708;37.644;2023-12-20T10:46:31;13.93;69.55
75786;DHT22;64402;44.708;37.644;2023-12-20T10:49:03;14.37;66.94
75786;DHT22;64402;44.708;37.644;2023-12-20T10:51:31;13.96;68.73
75786;DHT22;64402;44.708;37.644;2023-12-20T10:53:57;13.62;69.74
75786;DHT22;64402;44.708;37.644;2023-12-20T10:56:23;14.38;67.39
75786;DHT22;64402;44.708;37.644;2023-12-20T10:58:51;14.12;67.88
75786;DHT22;64402;44.708;37.644;2023-12-20T11:01:18;14.23;67.84
75786;DHT22;64402;44.708;37.644;2023-12-20T11:03:53;13.79;68.81
75786;DHT22;64402;44.708;37.644;2023-12-20T11:14:40;13.44;70.54
75786;DHT22;64402;44.708;37.644;2023-12-20T11:17:11;13.39;70.39
75786;DHT22;64402;44.708;37.644;2023-12-20T11:22:31;13.33;70.23
75786;DHT22;64402;44.708;37.644;2023-12-20T11:25:06;13.20;71.23
75786;DHT22;64402;44.708;37.644;2023-12-20T11:27:42;13.14;71.00
75786;DHT22;64402;44.708;37.644;2023-12-20T11:30:09;13.32;71.80
75786;DHT22;64402;44.708;37.644;2023-12-20T11:32:36;14.23;67.37
75786;DHT22;64402;44.708;37.644;2023-12-20T11:37:37;13.71;68.36
75786;DHT22;64402;44.708;37.644;2023-12-20T11:40:06;14.04;68.04
75786;DHT22;64402;44.708;37.644;2023-12-20T11:42:43;14.37;66.24
75786;DHT22;64402;44.708;37.644;2023-12-20T11:45:14;13.98;67.81
75786;DHT22;64402;44.708;37.644;2023-12-20T11:47:46;13.64;69.84
75786;DHT22;64402;44.708;37.644;2023-12-20T11:50:12;13.54;70.06
75786;DHT22;64402;44.708;37.644;2023-12-20T11:52:38;13.51;70.01
75786;DHT22;64402;44.708;37.644;2023-12-20T11:55:05;13.43;69.61
75786;DHT22;64402;44.708;37.644;2023-12-20T11:57:32;14.22;67.11
75786;DHT22;64402;44.708;37.644;2023-12-20T11:59:58;14.10;66.78
75786;DHT22;64402;44.708;37.644;2023-12-20T12:02:24;14.08;67.54
75786;DHT22;64402;44.708;37.644;2023-12-20T12:04:51;13.88;67.68
75786;DHT22;64402;44.708;37.644;2023-12-20T12:07:17;13.61;68.38
75786;DHT22;64402;44.708;37.644;2023-12-20T12:09:44;14.33;65.77
75786;DHT22;64402;44.708;37.644;2023-12-20T12:12:12;13.90;67.75
75786;DHT22;64402;44.708;37.644;2023-12-20T12:14:38;13.49;69.42
75786;DHT22;64402;44.708;37.644;2023-12-20T12:17:13;13.19;71.01
75786;DHT22;64402;44.708;37.644;2023-12-20T12:19:43;13.16;70.92
75786;DHT22;64402;44.708;37.644;2023-12-20T12:22:14;13.12;71.10
75786;DHT22;64402;44.708;37.644;2023-12-20T12:24:45;13.06;71.26
75786;DHT22;64402;44.708;37.644;2023-12-20T12:27:13;12.93;71.93
75786;DHT22;64402;44.708;37.644;2023-12-20T12:29:39;12.75;73.14
75786;DHT22;64402;44.708;37.644;2023-12-20T12:32:07;12.69;73.18
75786;DHT22;64402;44.708;37.644;2023-12-20T12:34:34;12.56;73.86
75786;DHT22;64402;44.708;37.644;2023-12-20T12:37:01;12.46;74.53
75786;DHT22;64402;44.708;37.644;2023-12-20T12:39:29;12.38;74.51
75786;DHT22;64402;44.708;37.644;2023-12-20T12:41:56;12.35;74.92
75786;DHT22;64402;44.708;37.644;2023-12-20T12:44:23;12.31;75.57
75786;DHT22;64402;44.708;37.644;2023-12-20T12:46:51;12.25;75.54
75786;DHT22;64402;44.708;37.644;2023-12-20T12:49:22;12.12;76.24
75786;DHT22;64402;44.708;37.644;2023-12-20T12:51:48;12.08;76.02
75786;DHT22;64402;44.708;37.644;2023-12-20T12:54:14;12.10;76.38
75786;DHT22;64402;44.708;37.644;2023-12-20T12:56:42;12.23;76.76
75786;DHT22;64402;44.708;37.644;2023-12-20T12:59:09;12.20;76.75
75786;DHT22;64402;44.708;37.644;2023-12-20T13:01:35;12.11;76.63
75786;DHT22;64402;44.708;37.644;2023-12-20T13:04:01;12.07;76.31
75786;DHT22;64402;44.708;37.644;2023-12-20T13:06:29;12.07;75.77
75786;DHT22;64402;44.708;37.644;2023-12-20T13:08:56;12.06;75.46
75786;DHT22;64402;44.708;37.644;2023-12-20T13:11:22;12.14;75.72
75786;DHT22;64402;44.708;37.644;2023-12-20T13:13:48;12.20;75.12
75786;DHT22;64402;44.708;37.644;2023-12-20T13:16:14;12.64;73.10
75786;DHT22;64402;44.708;37.644;2023-12-20T13:18:41;13.06;71.95
75786;DHT22;64402;44.708;37.644;2023-12-20T13:21:08;13.44;69.82
75786;DHT22;64402;44.708;37.644;2023-12-20T13:23:34;13.49;70.13
75786;DHT22;64402;44.708;37.644;2023-12-20T13:26:02;13.49;69.59
75786;DHT22;64402;44.708;37.644;2023-12-20T13:28:29;13.24;70.54
75786;DHT22;64402;44.708;37.644;2023-12-20T13:30:55;12.96;70.58
75786;DHT22;64402;44.708;37.644;2023-12-20T13:33:21;12.53;72.22
75786;DHT22;64402;44.708;37.644;2023-12-20T13:35:47;12.23;72.74
75786;DHT22;64402;44.708;37.644;2023-12-20T13:38:13;12.01;73.78
75786;DHT22;64402;44.708;37.644;2023-12-20T13:40:40;11.84;75.20
75786;DHT22;64402;44.708;37.644;2023-12-20T13:43:06;11.74;75.46
75786;DHT22;64402;44.708;37.644;2023-12-20T13:45:32;11.64;75.84
75786;DHT22;64402;44.708;37.644;2023-12-20T13:47:59;11.57;76.24
75786;DHT22;64402;44.708;37.644;2023-12-20T13:50:25;11.49;76.24
75786;DHT22;64402;44.708;37.644;2023-12-20T13:52:52;11.45;76.89
75786;DHT22;64402;44.708;37.644;2023-12-20T13:55:18;11.37;76.88
75786;DHT22;64402;44.708;37.644;2023-12-20T13:57:48;11.29;76.64
75786;DHT22;64402;44.708;37.644;2023-12-20T14:00:14;11.24;76.60
75786;DHT22;64402;44.708;37.644;2023-12-20T14:02:41;11.19;76.99
75786;DHT22;64402;44.708;37.644;2023-12-20T14:05:09;11.15;76.61
75786;DHT22;64402;44.708;37.644;2023-12-20T14:07:36;11.12;76.85
75786;DHT22;64402;44.708;37.644;2023-12-20T14:10:03;11.09;76.77
75786;DHT22;64402;44.708;37.644;2023-12-20T14:12:30;11.07;77.20
75786;DHT22;64402;44.708;37.644;2023-12-20T14:14:56;11.01;77.37
75786;DHT22;64402;44.708;37.644;2023-12-20T14:17:22;11.01;76.79
75786;DHT22;64402;44.708;37.644;2023-12-20T14:19:48;10.97;77.27
75786;DHT22;64402;44.708;37.644;2023-12-20T14:22:15;10.95;77.08
75786;DHT22;64402;44.708;37.644;2023-12-20T14:24:43;10.92;77.21
75786;DHT22;64402;44.708;37.644;2023-12-20T14:27:09;10.90;76.98
75786;DHT22;64402;44.708;37.644;2023-12-20T14:29:36;10.87;77.53
75786;DHT22;64402;44.708;37.644;2023-12-20T14:32:03;10.89;76.62
75786;DHT22;64402;44.708;37.644;2023-12-20T14:34:30;10.85;76.78
75786;DHT22;64402;44.708;37.644;2023-12-20T14:36:57;10.83;77.57
75786;DHT22;64402;44.708;37.644;2023-12-20T14:39:23;10.80;78.14
75786;DHT22;64402;44.708;37.644;2023-12-20T14:41:49;10.78;78.43
75786;DHT22;64402;44.708;37.644;2023-12-20T14:44:15;10.75;78.93
75786;DHT22;64402;44.708;37.644;2023-12-20T14:46:42;10.74;79.24
75786;DHT22;64402;44.708;37.644;2023-12-20T14:49:08;10.72;79.59
75786;DHT22;64402;44.708;37.644;2023-12-20T14:51:35;10.70;79.08
75786;DHT22;64402;44.708;37.644;2023-12-20T14:54:03;10.67;79.50
75786;DHT22;64402;44.708;37.644;2023-12-20T14:56:29;10.69;79.30
75786;DHT22;64402;44.708;37.644;2023-12-20T14:58:55;10.68;79.14
75786;DHT22;64402;44.708;37.644;2023-12-20T15:01:21;10.67;80.00
75786;DHT22;64402;44.708;37.644;2023-12-20T15:03:50;10.66;80.39
75786;DHT22;64402;44.708;37.644;2023-12-20T15:06:16;10.63;80.65
75786;DHT22;64402;44.708;37.644;2023-12-20T15:08:43;10.63;80.97
75786;DHT22;64402;44.708;37.644;2023-12-20T15:11:09;10.60;81.20
75786;DHT22;64402;44.708;37.644;2023-12-20T15:13:36;10.62;81.15
75786;DHT22;64402;44.708;37.644;2023-12-20T15:16:03;10.60;81.36
75786;DHT22;64402;44.708;37.644;2023-12-20T15:18:30;10.59;81.27
75786;DHT22;64402;44.708;37.644;2023-12-20T15:20:57;10.62;81.46
75786;DHT22;64402;44.708;37.644;2023-12-20T15:23:23;10.63;81.69
75786;DHT22;64402;44.708;37.644;2023-12-20T15:25:52;10.64;81.69
75786;DHT22;64402;44.708;37.644;2023-12-20T15:28:18;10.63;81.91